<?xml version="1.0" encoding="UTF-8" standalone="no" ?>
<gpx xmlns="http://www.topografix.com/GPX/1/1" xmlns:xsi="http://www.w3.org/2001/XMLSchema-instance" xsi:schemaLocation="http://www.topografix.com/GPX/1/1 http://www.topografix.com/GPX/1/1/gpx.xsd" version="1.1" creator="VisuGPX - https://www.visugpx.com">
  <metadata>
    <name>Mervent_Tour_orbie_6-20km</name>
    <desc><![CDATA[gnerando idor:7850096_8031708]]></desc>
  </metadata>
  <trk>
    <name><![CDATA[Mervent_20.7km-8031708]]></name>
    <extensions>
      <line xmlns="http://www.topografix.com/GPX/gpx_style/0/2">
        <color>0000FF</color>
        <width>4</width>
      </line>
    </extensions>
    <trkseg>
      <trkpt lat="46.52412" lon="-0.75732">
        <ele>89</ele>
        <time>2023-11-05T13:25:41Z</time>
      </trkpt>
      <trkpt lat="46.52305" lon="-0.75638">
        <ele>86</ele>
        <time>2023-11-05T13:28:28Z</time>
      </trkpt>
      <trkpt lat="46.52228" lon="-0.7532">
        <ele>67</ele>
        <time>2023-11-05T13:33:37Z</time>
      </trkpt>
      <trkpt lat="46.5229" lon="-0.75243">
        <ele>55</ele>
        <time>2023-11-05T13:35:26Z</time>
      </trkpt>
      <trkpt lat="46.52279" lon="-0.7508">
        <ele>41</ele>
        <time>2023-11-05T13:37:57Z</time>
      </trkpt>
      <trkpt lat="46.52456" lon="-0.74943">
        <ele>51</ele>
        <time>2023-11-05T13:42:24Z</time>
      </trkpt>
      <trkpt lat="46.52521" lon="-0.75329">
        <ele>47</ele>
        <time>2023-11-05T13:48:29Z</time>
      </trkpt>
      <trkpt lat="46.52577" lon="-0.75338">
        <ele>57</ele>
        <time>2023-11-05T13:49:44Z</time>
      </trkpt>
      <trkpt lat="46.52618" lon="-0.75205">
        <ele>75</ele>
        <time>2023-11-05T13:51:58Z</time>
      </trkpt>
      <trkpt lat="46.52807" lon="-0.75024">
        <ele>98</ele>
        <time>2023-11-05T13:57:00Z</time>
      </trkpt>
      <trkpt lat="46.52952" lon="-0.75007">
        <ele>96</ele>
        <time>2023-11-05T14:00:14Z</time>
      </trkpt>
      <trkpt lat="46.52913" lon="-0.74938">
        <ele>98</ele>
        <time>2023-11-05T14:01:36Z</time>
      </trkpt>
      <trkpt lat="46.53235" lon="-0.74479">
        <ele>94</ele>
        <time>2023-11-05T14:11:38Z</time>
      </trkpt>
      <trkpt lat="46.53318" lon="-0.74514">
        <ele>88</ele>
        <time>2023-11-05T14:13:33Z</time>
      </trkpt>
      <trkpt lat="46.53454" lon="-0.74175">
        <ele>79</ele>
        <time>2023-11-05T14:19:34Z</time>
      </trkpt>
      <trkpt lat="46.53654" lon="-0.74398">
        <ele>79</ele>
        <time>2023-11-05T14:25:10Z</time>
      </trkpt>
      <trkpt lat="46.53876" lon="-0.74518">
        <ele>82</ele>
        <time>2023-11-05T14:30:26Z</time>
      </trkpt>
      <trkpt lat="46.53849" lon="-0.74677">
        <ele>86</ele>
        <time>2023-11-05T14:32:56Z</time>
      </trkpt>
      <trkpt lat="46.53773" lon="-0.7475">
        <ele>87</ele>
        <time>2023-11-05T14:34:58Z</time>
      </trkpt>
      <trkpt lat="46.53959" lon="-0.74943">
        <ele>88</ele>
        <time>2023-11-05T14:40:03Z</time>
      </trkpt>
      <trkpt lat="46.5397" lon="-0.74999">
        <ele>89</ele>
        <time>2023-11-05T14:40:56Z</time>
      </trkpt>
      <trkpt lat="46.54139" lon="-0.7469">
        <ele>83</ele>
        <time>2023-11-05T14:46:59Z</time>
      </trkpt>
      <trkpt lat="46.54171" lon="-0.74715">
        <ele>84</ele>
        <time>2023-11-05T14:47:47Z</time>
      </trkpt>
      <trkpt lat="46.54378" lon="-0.75072">
        <ele>80</ele>
        <time>2023-11-05T14:54:56Z</time>
      </trkpt>
      <trkpt lat="46.54463" lon="-0.75222">
        <ele>69</ele>
        <time>2023-11-05T14:57:54Z</time>
      </trkpt>
      <trkpt lat="46.54466" lon="-0.75389">
        <ele>64</ele>
        <time>2023-11-05T15:00:28Z</time>
      </trkpt>
      <trkpt lat="46.54407" lon="-0.75466">
        <ele>65</ele>
        <time>2023-11-05T15:02:13Z</time>
      </trkpt>
      <trkpt lat="46.54387" lon="-0.75548">
        <ele>65</ele>
        <time>2023-11-05T15:03:33Z</time>
      </trkpt>
      <trkpt lat="46.54183" lon="-0.75651">
        <ele>65</ele>
        <time>2023-11-05T15:08:21Z</time>
      </trkpt>
      <trkpt lat="46.54062" lon="-0.75857">
        <ele>70</ele>
        <time>2023-11-05T15:12:30Z</time>
      </trkpt>
      <trkpt lat="46.53799" lon="-0.7593">
        <ele>59</ele>
        <time>2023-11-05T15:18:27Z</time>
      </trkpt>
      <trkpt lat="46.53631" lon="-0.76024">
        <ele>55</ele>
        <time>2023-11-05T15:22:28Z</time>
      </trkpt>
      <trkpt lat="46.5353" lon="-0.76101">
        <ele>48</ele>
        <time>2023-11-05T15:25:00Z</time>
      </trkpt>
      <trkpt lat="46.53406" lon="-0.76046">
        <ele>49</ele>
        <time>2023-11-05T15:27:53Z</time>
      </trkpt>
      <trkpt lat="46.53173" lon="-0.76235">
        <ele>66</ele>
        <time>2023-11-05T15:33:49Z</time>
      </trkpt>
      <trkpt lat="46.53076" lon="-0.7608">
        <ele>46</ele>
        <time>2023-11-05T15:37:01Z</time>
      </trkpt>
      <trkpt lat="46.52905" lon="-0.76132">
        <ele>45</ele>
        <time>2023-11-05T15:40:54Z</time>
      </trkpt>
      <trkpt lat="46.5294" lon="-0.76286">
        <ele>54</ele>
        <time>2023-11-05T15:43:23Z</time>
      </trkpt>
      <trkpt lat="46.5286" lon="-0.76539">
        <ele>56</ele>
        <time>2023-11-05T15:47:39Z</time>
      </trkpt>
      <trkpt lat="46.52677" lon="-0.76797">
        <ele>47</ele>
        <time>2023-11-05T15:53:19Z</time>
      </trkpt>
      <trkpt lat="46.52784" lon="-0.76818">
        <ele>49</ele>
        <time>2023-11-05T15:55:43Z</time>
      </trkpt>
      <trkpt lat="46.52931" lon="-0.76702">
        <ele>69</ele>
        <time>2023-11-05T15:59:26Z</time>
      </trkpt>
      <trkpt lat="46.53005" lon="-0.76548">
        <ele>93</ele>
        <time>2023-11-05T16:02:19Z</time>
      </trkpt>
      <trkpt lat="46.53466" lon="-0.76883">
        <ele>102</ele>
        <time>2023-11-05T16:13:47Z</time>
      </trkpt>
      <trkpt lat="46.5366" lon="-0.76822">
        <ele>104</ele>
        <time>2023-11-05T16:18:11Z</time>
      </trkpt>
      <trkpt lat="46.53716" lon="-0.7693">
        <ele>96</ele>
        <time>2023-11-05T16:20:16Z</time>
      </trkpt>
      <trkpt lat="46.53646" lon="-0.77076">
        <ele>92</ele>
        <time>2023-11-05T16:22:59Z</time>
      </trkpt>
      <trkpt lat="46.53649" lon="-0.77226">
        <ele>84</ele>
        <time>2023-11-05T16:25:17Z</time>
      </trkpt>
      <trkpt lat="46.5361" lon="-0.7735">
        <ele>74</ele>
        <time>2023-11-05T16:27:22Z</time>
      </trkpt>
      <trkpt lat="46.53569" lon="-0.7747">
        <ele>62</ele>
        <time>2023-11-05T16:29:25Z</time>
      </trkpt>
      <trkpt lat="46.53504" lon="-0.77492">
        <ele>54</ele>
        <time>2023-11-05T16:30:54Z</time>
      </trkpt>
      <trkpt lat="46.5338" lon="-0.77355">
        <ele>51</ele>
        <time>2023-11-05T16:34:22Z</time>
      </trkpt>
      <trkpt lat="46.53253" lon="-0.77535">
        <ele>61</ele>
        <time>2023-11-05T16:38:18Z</time>
      </trkpt>
      <trkpt lat="46.53256" lon="-0.7738">
        <ele>56</ele>
        <time>2023-11-05T16:40:41Z</time>
      </trkpt>
      <trkpt lat="46.53123" lon="-0.77282">
        <ele>53</ele>
        <time>2023-11-05T16:44:00Z</time>
      </trkpt>
      <trkpt lat="46.52958" lon="-0.77222">
        <ele>62</ele>
        <time>2023-11-05T16:47:47Z</time>
      </trkpt>
      <trkpt lat="46.52789" lon="-0.77101">
        <ele>70</ele>
        <time>2023-11-05T16:51:58Z</time>
      </trkpt>
      <trkpt lat="46.52538" lon="-0.77054">
        <ele>89</ele>
        <time>2023-11-05T16:57:36Z</time>
      </trkpt>
      <trkpt lat="46.52654" lon="-0.7726">
        <ele>93</ele>
        <time>2023-11-05T17:01:40Z</time>
      </trkpt>
      <trkpt lat="46.52606" lon="-0.77282">
        <ele>93</ele>
        <time>2023-11-05T17:02:47Z</time>
      </trkpt>
      <trkpt lat="46.5266" lon="-0.7747">
        <ele>96</ele>
        <time>2023-11-05T17:05:55Z</time>
      </trkpt>
      <trkpt lat="46.52772" lon="-0.7744">
        <ele>98</ele>
        <time>2023-11-05T17:08:26Z</time>
      </trkpt>
      <trkpt lat="46.52869" lon="-0.77604">
        <ele>94</ele>
        <time>2023-11-05T17:11:45Z</time>
      </trkpt>
      <trkpt lat="46.52955" lon="-0.77788">
        <ele>95</ele>
        <time>2023-11-05T17:15:09Z</time>
      </trkpt>
      <trkpt lat="46.5302" lon="-0.78256">
        <ele>93</ele>
        <time>2023-11-05T17:22:28Z</time>
      </trkpt>
      <trkpt lat="46.53141" lon="-0.78543">
        <ele>96</ele>
        <time>2023-11-05T17:27:37Z</time>
      </trkpt>
      <trkpt lat="46.52952" lon="-0.78595">
        <ele>102</ele>
        <time>2023-11-05T17:31:53Z</time>
      </trkpt>
      <trkpt lat="46.53097" lon="-0.79136">
        <ele>114</ele>
        <time>2023-11-05T17:40:46Z</time>
      </trkpt>
      <trkpt lat="46.53285" lon="-0.79067">
        <ele>107</ele>
        <time>2023-11-05T17:45:05Z</time>
      </trkpt>
      <trkpt lat="46.52719" lon="-0.80196">
        <ele>98</ele>
        <time>2023-11-05T18:06:28Z</time>
      </trkpt>
      <trkpt lat="46.52642" lon="-0.79822">
        <ele>104</ele>
        <time>2023-11-05T18:12:26Z</time>
      </trkpt>
      <trkpt lat="46.52311" lon="-0.79938">
        <ele>101</ele>
        <time>2023-11-05T18:20:00Z</time>
      </trkpt>
      <trkpt lat="46.52231" lon="-0.79466">
        <ele>97</ele>
        <time>2023-11-05T18:27:27Z</time>
      </trkpt>
      <trkpt lat="46.51998" lon="-0.79556">
        <ele>92</ele>
        <time>2023-11-05T18:32:48Z</time>
      </trkpt>
      <trkpt lat="46.51242" lon="-0.79239">
        <ele>80</ele>
        <time>2023-11-05T18:50:19Z</time>
      </trkpt>
      <trkpt lat="46.51328" lon="-0.79101">
        <ele>74</ele>
        <time>2023-11-05T18:53:09Z</time>
      </trkpt>
      <trkpt lat="46.5141" lon="-0.78921">
        <ele>68</ele>
        <time>2023-11-05T18:56:28Z</time>
      </trkpt>
      <trkpt lat="46.51443" lon="-0.78955">
        <ele>71</ele>
        <time>2023-11-05T18:57:22Z</time>
      </trkpt>
      <trkpt lat="46.51496" lon="-0.7893">
        <ele>71</ele>
        <time>2023-11-05T18:58:36Z</time>
      </trkpt>
      <trkpt lat="46.51428" lon="-0.78749">
        <ele>60</ele>
        <time>2023-11-05T19:01:45Z</time>
      </trkpt>
      <trkpt lat="46.51493" lon="-0.78466">
        <ele>52</ele>
        <time>2023-11-05T19:06:19Z</time>
      </trkpt>
      <trkpt lat="46.51599" lon="-0.7844">
        <ele>58</ele>
        <time>2023-11-05T19:08:43Z</time>
      </trkpt>
      <trkpt lat="46.51809" lon="-0.78346">
        <ele>57</ele>
        <time>2023-11-05T19:13:36Z</time>
      </trkpt>
      <trkpt lat="46.5191" lon="-0.78406">
        <ele>55</ele>
        <time>2023-11-05T19:16:02Z</time>
      </trkpt>
      <trkpt lat="46.51874" lon="-0.78226">
        <ele>52</ele>
        <time>2023-11-05T19:18:54Z</time>
      </trkpt>
      <trkpt lat="46.51918" lon="-0.78131">
        <ele>55</ele>
        <time>2023-11-05T19:20:39Z</time>
      </trkpt>
      <trkpt lat="46.51995" lon="-0.78067">
        <ele>57</ele>
        <time>2023-11-05T19:22:37Z</time>
      </trkpt>
      <trkpt lat="46.51895" lon="-0.77788">
        <ele>55</ele>
        <time>2023-11-05T19:27:26Z</time>
      </trkpt>
      <trkpt lat="46.52119" lon="-0.77406">
        <ele>79</ele>
        <time>2023-11-05T19:35:07Z</time>
      </trkpt>
      <trkpt lat="46.52111" lon="-0.7732">
        <ele>77</ele>
        <time>2023-11-05T19:36:27Z</time>
      </trkpt>
      <trkpt lat="46.52084" lon="-0.77359">
        <ele>77</ele>
        <time>2023-11-05T19:37:18Z</time>
      </trkpt>
      <trkpt lat="46.52013" lon="-0.77333">
        <ele>72</ele>
        <time>2023-11-05T19:38:55Z</time>
      </trkpt>
      <trkpt lat="46.51995" lon="-0.7723">
        <ele>68</ele>
        <time>2023-11-05T19:40:33Z</time>
      </trkpt>
      <trkpt lat="46.51862" lon="-0.77071">
        <ele>51</ele>
        <time>2023-11-05T19:44:23Z</time>
      </trkpt>
      <trkpt lat="46.51859" lon="-0.76865">
        <ele>57</ele>
        <time>2023-11-05T19:47:32Z</time>
      </trkpt>
      <trkpt lat="46.51732" lon="-0.7681">
        <ele>50</ele>
        <time>2023-11-05T19:50:29Z</time>
      </trkpt>
      <trkpt lat="46.517" lon="-0.76621">
        <ele>46</ele>
        <time>2023-11-05T19:53:27Z</time>
      </trkpt>
      <trkpt lat="46.51688" lon="-0.76483">
        <ele>42</ele>
        <time>2023-11-05T19:55:35Z</time>
      </trkpt>
      <trkpt lat="46.51791" lon="-0.7638">
        <ele>42</ele>
        <time>2023-11-05T19:58:22Z</time>
      </trkpt>
      <trkpt lat="46.51915" lon="-0.76419">
        <ele>49</ele>
        <time>2023-11-05T20:01:11Z</time>
      </trkpt>
      <trkpt lat="46.52004" lon="-0.7641">
        <ele>55</ele>
        <time>2023-11-05T20:03:10Z</time>
      </trkpt>
      <trkpt lat="46.5219" lon="-0.7629">
        <ele>63</ele>
        <time>2023-11-05T20:07:42Z</time>
      </trkpt>
      <trkpt lat="46.52243" lon="-0.7629">
        <ele>75</ele>
        <time>2023-11-05T20:08:53Z</time>
      </trkpt>
      <trkpt lat="46.52293" lon="-0.76106">
        <ele>76</ele>
        <time>2023-11-05T20:11:54Z</time>
      </trkpt>
      <trkpt lat="46.52329" lon="-0.75844">
        <ele>90</ele>
        <time>2023-11-05T20:16:00Z</time>
      </trkpt>
      <trkpt lat="46.5242" lon="-0.7584">
        <ele>93</ele>
        <time>2023-11-05T20:18:01Z</time>
      </trkpt>
      <trkpt lat="46.52423" lon="-0.75659">
        <ele>79</ele>
        <time>2023-11-05T20:20:47Z</time>
      </trkpt>
    </trkseg>
  </trk>
  <trk>
    <name><![CDATA[OrbrieBalingue_6km-7850096]]></name>
    <extensions>
      <line xmlns="http://www.topografix.com/GPX/gpx_style/0/2">
        <color>00FF00</color>
        <width>4</width>
      </line>
    </extensions>
    <trkseg>
      <trkpt lat="46.50731" lon="-0.76089">
        <ele>95</ele>
        <time>2023-11-05T13:25:24Z</time>
      </trkpt>
      <trkpt lat="46.5141" lon="-0.76213">
        <ele>96</ele>
        <time>2023-11-05T13:40:37Z</time>
      </trkpt>
      <trkpt lat="46.51449" lon="-0.76132">
        <ele>94</ele>
        <time>2023-11-05T13:42:08Z</time>
      </trkpt>
      <trkpt lat="46.51594" lon="-0.76093">
        <ele>86</ele>
        <time>2023-11-05T13:45:25Z</time>
      </trkpt>
      <trkpt lat="46.51718" lon="-0.75986">
        <ele>75</ele>
        <time>2023-11-05T13:48:37Z</time>
      </trkpt>
      <trkpt lat="46.51833" lon="-0.76063">
        <ele>62</ele>
        <time>2023-11-05T13:51:26Z</time>
      </trkpt>
      <trkpt lat="46.52072" lon="-0.76029">
        <ele>47</ele>
        <time>2023-11-05T13:56:47Z</time>
      </trkpt>
      <trkpt lat="46.51948" lon="-0.75788">
        <ele>46</ele>
        <time>2023-11-05T14:01:23Z</time>
      </trkpt>
      <trkpt lat="46.51667" lon="-0.75745">
        <ele>48</ele>
        <time>2023-11-05T14:07:40Z</time>
      </trkpt>
      <trkpt lat="46.51526" lon="-0.75844">
        <ele>56</ele>
        <time>2023-11-05T14:11:09Z</time>
      </trkpt>
      <trkpt lat="46.51387" lon="-0.7578">
        <ele>63</ele>
        <time>2023-11-05T14:14:24Z</time>
      </trkpt>
      <trkpt lat="46.51372" lon="-0.75325">
        <ele>46</ele>
        <time>2023-11-05T14:21:22Z</time>
      </trkpt>
      <trkpt lat="46.51177" lon="-0.75445">
        <ele>55</ele>
        <time>2023-11-05T14:26:05Z</time>
      </trkpt>
      <trkpt lat="46.51009" lon="-0.75376">
        <ele>59</ele>
        <time>2023-11-05T14:29:58Z</time>
      </trkpt>
      <trkpt lat="46.50908" lon="-0.75226">
        <ele>62</ele>
        <time>2023-11-05T14:33:10Z</time>
      </trkpt>
      <trkpt lat="46.50899" lon="-0.75054">
        <ele>55</ele>
        <time>2023-11-05T14:35:49Z</time>
      </trkpt>
      <trkpt lat="46.50926" lon="-0.74883">
        <ele>47</ele>
        <time>2023-11-05T14:38:30Z</time>
      </trkpt>
      <trkpt lat="46.50654" lon="-0.7493">
        <ele>57</ele>
        <time>2023-11-05T14:44:35Z</time>
      </trkpt>
      <trkpt lat="46.50465" lon="-0.74908">
        <ele>63</ele>
        <time>2023-11-05T14:48:48Z</time>
      </trkpt>
      <trkpt lat="46.50356" lon="-0.74685">
        <ele>48</ele>
        <time>2023-11-05T14:53:00Z</time>
      </trkpt>
      <trkpt lat="46.50264" lon="-0.74797">
        <ele>54</ele>
        <time>2023-11-05T14:55:40Z</time>
      </trkpt>
      <trkpt lat="46.50258" lon="-0.75016">
        <ele>65</ele>
        <time>2023-11-05T14:59:01Z</time>
      </trkpt>
      <trkpt lat="46.50297" lon="-0.75054">
        <ele>74</ele>
        <time>2023-11-05T15:00:04Z</time>
      </trkpt>
      <trkpt lat="46.50356" lon="-0.76076">
        <ele>92</ele>
        <time>2023-11-05T15:15:46Z</time>
      </trkpt>
      <trkpt lat="46.50456" lon="-0.76046">
        <ele>97</ele>
        <time>2023-11-05T15:18:02Z</time>
      </trkpt>
      <trkpt lat="46.50737" lon="-0.76084">
        <ele>95</ele>
        <time>2023-11-05T15:24:19Z</time>
      </trkpt>
    </trkseg>
  </trk>
</gpx>